createdAt,value
2022-10-18T00:00:47.996Z,102127.53
2022-10-18T00:03:15.446Z,102126.47
2022-10-18T00:05:42.862Z,102127.28
2022-10-18T00:08:10.331Z,102124.78
2022-10-18T00:10:37.822Z,102126.88
2022-10-18T00:13:05.408Z,102126.88
2022-10-18T00:15:32.886Z,102118.84
2022-10-18T00:18:00.379Z,102123.47
2022-10-18T00:20:27.911Z,102119.91
2022-10-18T00:22:55.350Z,102115.50
2022-10-18T00:25:22.791Z,102103.66
2022-10-18T00:27:50.184Z,102098.19
2022-10-18T00:30:17.597Z,102093.56
2022-10-18T00:32:45.039Z,102092.50
2022-10-18T00:35:12.483Z,102088.94
2022-10-18T00:37:39.939Z,102087.22
2022-10-18T00:40:08.001Z,102090.59
2022-10-18T00:42:36.507Z,102086.41
2022-10-18T00:45:22.335Z,102084.50
2022-10-18T00:48:03.674Z,102076.28
2022-10-18T00:50:32.294Z,102083.44
2022-10-18T00:53:02.182Z,102083.66
2022-10-18T00:55:31.621Z,102084.50
2022-10-18T00:57:59.092Z,102083.44
2022-10-18T01:00:26.631Z,102084.06
2022-10-18T01:02:54.259Z,102083.25
2022-10-18T01:05:21.828Z,102083.03
2022-10-18T01:08:27.094Z,102078.81
2022-10-18T01:11:12.650Z,102090.59
2022-10-18T01:13:50.097Z,102081.75
2022-10-18T01:16:34.778Z,102077.56
2022-10-18T01:19:11.318Z,102073.31
2022-10-18T01:21:56.099Z,102073.78
2022-10-18T01:24:29.549Z,102072.91
2022-10-18T01:27:05.761Z,102071.25
2022-10-18T01:29:43.893Z,102072.53
2022-10-18T01:32:33.264Z,102068.91
2022-10-18T01:35:03.219Z,102064.06
2022-10-18T01:37:31.040Z,102064.94
2022-10-18T01:39:58.763Z,102051.66
2022-10-18T01:42:26.227Z,102056.91
2022-10-18T01:44:53.695Z,102057.97
2022-10-18T01:47:21.107Z,102048.69
2022-10-18T01:49:48.536Z,102056.47
2022-10-18T01:52:16.398Z,102056.47
2022-10-18T01:54:46.209Z,102048.25
2022-10-18T01:57:22.768Z,102041.09
2022-10-18T02:00:02.096Z,102048.50
2022-10-18T02:02:51.159Z,102049.75
2022-10-18T02:05:29.751Z,102055.84
2022-10-18T02:08:23.124Z,102037.94
2022-10-18T02:11:04.520Z,102043.22
2022-10-18T02:14:03.659Z,102033.31
2022-10-18T02:16:41.149Z,102031.19
2022-10-18T02:19:18.401Z,102039.66
2022-10-18T02:21:45.918Z,102026.16
2022-10-18T02:24:15.687Z,102020.69
2022-10-18T02:26:43.194Z,102020.47
2022-10-18T02:29:11.551Z,102012.03
2022-10-18T02:31:47.893Z,102015.22
2022-10-18T02:34:29.448Z,102005.53
2022-10-18T02:36:58.615Z,102006.78
2022-10-18T02:39:36.796Z,102005.28
2022-10-18T02:42:08.158Z,101998.31
2022-10-18T02:44:35.798Z,101997.06
2022-10-18T02:47:03.895Z,101997.06
2022-10-18T02:49:31.395Z,101991.59
2022-10-18T02:51:58.862Z,101997.69
2022-10-18T02:54:26.342Z,101990.56
2022-10-18T02:56:56.901Z,101993.50
2022-10-18T02:59:24.411Z,101984.66
2022-10-18T03:01:52.049Z,101998.78
2022-10-18T03:04:19.703Z,101989.31
2022-10-18T03:06:47.458Z,102001.31
2022-10-18T03:09:14.974Z,101997.69
2022-10-18T03:11:42.619Z,102003.81
2022-10-18T03:14:10.177Z,101991.59
2022-10-18T03:16:37.665Z,101998.31
2022-10-18T03:19:05.205Z,101998.31
2022-10-18T03:21:32.704Z,102006.34
2022-10-18T03:24:00.223Z,102002.75
2022-10-18T03:26:27.714Z,102004.66
2022-10-18T03:28:55.421Z,102001.31
2022-10-18T03:31:23.098Z,102007.63
2022-10-18T03:33:50.527Z,102001.50
2022-10-18T03:36:18.023Z,102000.88
2022-10-18T03:38:45.567Z,102007.41
2022-10-18T03:41:13.046Z,101999.19
2022-10-18T03:43:40.441Z,102001.94
2022-10-18T03:46:07.931Z,101999.81
2022-10-18T03:48:35.569Z,101995.63
2022-10-18T03:51:03.056Z,102000.25
2022-10-18T03:53:30.488Z,101990.97
2022-10-18T03:55:57.882Z,102004.66
2022-10-18T03:58:25.430Z,102003.63
2022-10-18T04:00:53.169Z,102003.63
2022-10-18T04:03:21.144Z,102011.00
2022-10-18T04:05:48.781Z,102001.72
2022-10-18T04:08:16.248Z,102008.03
2022-10-18T04:10:44.408Z,102006.38
2022-10-18T04:13:12.389Z,102008.47
2022-10-18T04:15:39.832Z,102009.31
2022-10-18T04:18:08.616Z,102008.28
2022-10-18T04:20:36.468Z,101995.63
2022-10-18T04:23:03.901Z,101999.19
2022-10-18T04:25:31.460Z,101994.78
2022-10-18T04:27:58.940Z,101996.66
2022-10-18T04:30:26.374Z,101995.63
2022-10-18T04:32:53.901Z,101993.72
2022-10-18T04:35:24.556Z,101998.34
2022-10-18T04:37:52.082Z,101990.75
2022-10-18T04:40:20.153Z,101990.34
2022-10-18T04:42:47.721Z,101987.41
2022-10-18T04:45:15.126Z,101990.75
2022-10-18T04:47:42.643Z,101991.84
2022-10-18T04:50:10.132Z,101999.19
2022-10-18T04:52:37.664Z,101993.91
2022-10-18T04:55:05.406Z,101997.53
2022-10-18T04:57:33.052Z,101991.59
2022-10-18T05:00:00.618Z,101983.63
2022-10-18T05:02:28.049Z,101981.72
2022-10-18T05:04:55.516Z,101980.03
2022-10-18T05:07:22.991Z,101983.84
2022-10-18T05:09:50.463Z,101984.66
2022-10-18T05:12:17.935Z,101985.50
2022-10-18T05:14:45.403Z,101988.03
2022-10-18T05:17:12.821Z,101978.97
2022-10-18T05:19:40.279Z,101984.47
2022-10-18T05:22:09.376Z,101987.19
2022-10-18T05:24:36.867Z,101989.72
2022-10-18T05:27:04.362Z,101994.97
2022-10-18T05:29:31.754Z,101988.22
2022-10-18T05:31:59.202Z,101991.84
2022-10-18T05:34:27.407Z,101997.06
2022-10-18T05:36:54.872Z,101992.66
2022-10-18T05:39:22.307Z,101991.84
2022-10-18T05:41:49.783Z,101998.16
2022-10-18T05:44:17.234Z,102002.78
2022-10-18T05:46:44.679Z,102010.16
2022-10-18T05:49:12.355Z,102003.84
2022-10-18T05:51:39.791Z,101997.53
2022-10-18T05:54:07.331Z,102009.31
2022-10-18T05:56:34.893Z,102005.13
2022-10-18T05:59:05.052Z,102006.78
2022-10-18T06:01:32.513Z,102015.63
2022-10-18T06:04:00.005Z,102015.63
2022-10-18T06:06:27.426Z,102010.16
2022-10-18T06:08:54.848Z,102012.88
2022-10-18T06:11:22.333Z,102005.75
2022-10-18T06:13:50.541Z,102011.22
2022-10-18T06:16:19.829Z,102018.38
2022-10-18T06:18:51.349Z,102012.88
2022-10-18T06:21:19.036Z,102016.69
2022-10-18T06:23:54.111Z,102011.00
2022-10-18T06:26:22.084Z,102004.66
2022-10-18T06:28:49.657Z,102008.28
2022-10-18T06:31:17.347Z,102008.03
2022-10-18T06:33:46.097Z,102007.19
2022-10-18T06:36:17.728Z,102008.03
2022-10-18T06:38:45.420Z,102010.34
2022-10-18T06:41:12.924Z,102013.72
2022-10-18T06:43:40.495Z,102019.19
2022-10-18T06:46:08.244Z,102016.25
2022-10-18T06:48:35.919Z,102020.88
2022-10-18T06:51:04.976Z,102019.00
2022-10-18T06:53:33.711Z,102022.56
2022-10-18T06:56:12.984Z,102026.13
2022-10-18T06:58:40.903Z,102033.31
2022-10-18T07:01:12.970Z,102026.97
2022-10-18T07:03:40.439Z,102017.91
2022-10-18T07:06:08.852Z,102024.47
2022-10-18T07:08:36.485Z,102020.88
2022-10-18T07:11:04.465Z,102021.50
2022-10-18T07:13:33.230Z,102024.84
2022-10-18T07:16:06.026Z,102041.28
2022-10-18T07:18:37.818Z,102032.88
2022-10-18T07:21:08.006Z,102038.13
2022-10-18T07:23:36.695Z,102035.22
2022-10-18T07:26:13.105Z,102034.13
2022-10-18T07:28:40.662Z,102027.63
2022-10-18T07:31:08.500Z,102024.03
2022-10-18T07:33:37.947Z,102030.38
2022-10-18T07:36:06.930Z,102031.81
2022-10-18T07:38:34.755Z,102030.16
2022-10-18T07:41:03.420Z,102030.16
2022-10-18T07:43:30.926Z,102025.50
2022-10-18T07:45:59.790Z,102036.47
2022-10-18T07:48:27.273Z,102024.44
2022-10-18T07:50:54.891Z,102019.81
2022-10-18T07:53:24.952Z,102021.47
2022-10-18T07:55:52.433Z,102015.78
2022-10-18T07:58:19.919Z,102015.78
2022-10-18T08:00:47.361Z,102015.59
2022-10-18T08:03:14.785Z,102019.38
2022-10-18T08:05:42.210Z,102018.31
2022-10-18T08:08:09.662Z,102017.47
2022-10-18T08:10:37.109Z,102024.63
2022-10-18T08:13:04.604Z,102022.72
2022-10-18T08:15:31.994Z,102017.25
2022-10-18T08:17:59.443Z,102021.69
2022-10-18T08:20:30.750Z,102028.22
2022-10-18T08:23:00.432Z,102028.22
2022-10-18T08:25:28.854Z,102040.00
2022-10-18T08:27:56.435Z,102032.66
2022-10-18T08:30:24.034Z,102041.69
2022-10-18T08:32:51.448Z,102036.22
2022-10-18T08:35:20.260Z,102033.47
2022-10-18T08:37:48.540Z,102036.00
2022-10-18T08:40:16.078Z,102028.63
2022-10-18T08:43:03.150Z,102023.34
2022-10-18T08:45:41.485Z,102023.97
2022-10-18T08:48:31.362Z,102030.53
2022-10-18T08:50:58.912Z,102023.34
2022-10-18T08:53:36.202Z,102030.75
2022-10-18T08:56:14.458Z,102021.47
2022-10-18T08:58:45.036Z,102021.47
2022-10-18T09:01:23.567Z,102019.56
2022-10-18T09:04:28.005Z,102016.81
2022-10-18T09:07:26.072Z,102011.34
2022-10-18T09:10:05.819Z,102011.56
2022-10-18T09:12:55.535Z,102013.25
2022-10-18T09:15:29.654Z,102012.38
2022-10-18T09:18:25.493Z,102017.88
2022-10-18T09:21:02.040Z,102005.88
2022-10-18T09:24:09.013Z,102004.16
2022-10-18T09:26:44.259Z,102000.38
2022-10-18T09:29:30.394Z,101999.56
2022-10-18T09:32:08.824Z,101998.69
2022-10-18T09:34:58.014Z,102000.38
2022-10-18T09:37:25.666Z,101991.09
2022-10-18T09:40:03.324Z,101993.84
2022-10-18T09:42:40.384Z,101994.06
2022-10-18T09:45:18.170Z,101992.38
2022-10-18T09:47:48.725Z,101995.53
2022-10-18T09:50:37.899Z,101987.31
2022-10-18T09:53:33.943Z,101981.81
2022-10-18T09:56:14.054Z,101983.50
2022-10-18T09:58:44.767Z,101978.88
2022-10-18T10:01:29.597Z,101968.97
2022-10-18T10:03:57.092Z,101972.53
2022-10-18T10:06:31.474Z,101972.53
2022-10-18T10:09:17.244Z,101972.72
2022-10-18T10:11:46.029Z,101970.59
2022-10-18T10:14:17.529Z,101968.28
2022-10-18T10:16:44.910Z,101959.44
2022-10-18T10:19:23.123Z,101961.34
2022-10-18T10:21:51.965Z,101966.63
2022-10-18T10:24:27.440Z,101955.66
2022-10-18T10:27:07.559Z,101957.78
2022-10-18T10:29:48.405Z,101950.41
2022-10-18T10:32:17.860Z,101953.75
2022-10-18T10:34:45.467Z,101945.53
2022-10-18T10:37:32.450Z,101948.50
2022-10-18T10:40:24.070Z,101943.00
2022-10-18T10:43:04.287Z,101935.66
2022-10-18T10:45:57.522Z,101937.53
2022-10-18T10:48:27.001Z,101933.75
2022-10-18T10:51:07.980Z,101929.94
2022-10-18T10:53:38.224Z,101922.56
2022-10-18T10:56:06.641Z,101916.00
2022-10-18T10:58:38.085Z,101909.69
2022-10-18T11:01:18.904Z,101906.34
2022-10-18T11:03:50.894Z,101901.47
2022-10-18T11:06:44.783Z,101896.63
2022-10-18T11:09:41.292Z,101885.88
2022-10-18T11:12:24.103Z,101881.22
2022-10-18T11:14:56.212Z,101876.81
2022-10-18T11:17:36.198Z,101872.16
2022-10-18T11:20:30.083Z,101866.47
2022-10-18T11:23:02.600Z,101858.88
2022-10-18T11:26:10.949Z,101855.50
2022-10-18T11:29:02.774Z,101850.84
2022-10-18T11:31:40.880Z,101855.28
2022-10-18T11:34:23.235Z,101839.91
2022-10-18T11:37:34.509Z,101834.41
2022-10-18T11:40:31.690Z,101834.19
2022-10-18T11:43:20.646Z,101821.53
2022-10-18T11:46:11.760Z,101814.41
2022-10-18T11:49:16.245Z,101813.56
2022-10-18T11:52:08.327Z,101816.06
2022-10-18T11:54:51.591Z,101812.72
2022-10-18T11:57:41.182Z,101802.59
2022-10-18T12:00:49.141Z,101796.06
2022-10-18T12:03:37.718Z,101784.25
2022-10-18T12:06:07.656Z,101795.22
2022-10-18T12:08:40.223Z,101779.59
2022-10-18T12:11:20.104Z,101779.81
2022-10-18T12:13:52.837Z,101780.69
2022-10-18T12:16:38.068Z,101774.97
2022-10-18T12:19:22.133Z,101774.75
2022-10-18T12:21:52.947Z,101774.75
2022-10-18T12:24:21.817Z,101767.59
2022-10-18T12:26:53.955Z,101770.34
2022-10-18T12:29:27.424Z,101769.25
2022-10-18T12:31:57.243Z,101759.78
2022-10-18T12:34:27.677Z,101760.59
2022-10-18T12:37:10.325Z,101760.81
2022-10-18T12:40:05.591Z,101753.91
2022-10-18T12:42:33.909Z,101742.94
2022-10-18T12:45:13.855Z,101752.00
2022-10-18T12:47:41.321Z,101746.50
2022-10-18T12:50:46.306Z,101738.50
2022-10-18T12:53:13.700Z,101729.00
2022-10-18T12:58:30.342Z,101729.22
2022-10-18T13:01:02.775Z,101724.59
2022-10-18T13:03:41.982Z,101722.88
2022-10-18T13:06:09.470Z,101720.78
2022-10-18T13:08:41.991Z,101713.00
2022-10-18T13:11:12.003Z,101717.19
2022-10-18T13:13:46.080Z,101712.31
2022-10-18T13:16:22.754Z,101711.72
2022-10-18T13:18:58.241Z,101714.44
2022-10-18T13:21:31.784Z,101710.66
2022-10-18T13:24:20.533Z,101703.50
2022-10-18T13:27:18.043Z,101704.34
2022-10-18T13:30:26.138Z,101703.28
2022-10-18T13:33:06.499Z,101702.44
2022-10-18T13:36:07.560Z,101697.78
2022-10-18T13:38:57.658Z,101699.47
2022-10-18T13:41:44.600Z,101690.41
2022-10-18T13:44:40.261Z,101680.28
2022-10-18T13:47:07.612Z,101685.78
2022-10-18T13:49:43.822Z,101689.56
2022-10-18T13:52:43.264Z,101683.25
2022-10-18T13:55:44.783Z,101682.44
2022-10-18T13:58:31.538Z,101680.50
2022-10-18T14:01:28.125Z,101688.75
2022-10-18T14:04:17.535Z,101683.25
2022-10-18T14:06:45.445Z,101681.13
2022-10-18T14:09:26.350Z,101681.13
2022-10-18T14:12:36.560Z,101681.34
2022-10-18T14:15:17.433Z,101681.13
2022-10-18T14:18:05.603Z,101674.81
2022-10-18T14:20:55.286Z,101673.72
2022-10-18T14:23:40.095Z,101676.47
2022-10-18T14:26:17.284Z,101681.97
2022-10-18T14:29:00.662Z,101683.88
2022-10-18T14:31:28.285Z,101680.03
2022-10-18T14:33:58.419Z,101672.91
2022-10-18T14:36:28.108Z,101668.25
2022-10-18T14:39:05.432Z,101666.34
2022-10-18T14:41:33.495Z,101668.25
2022-10-18T14:44:16.286Z,101667.41
2022-10-18T14:46:50.694Z,101657.28
2022-10-18T14:49:19.324Z,101658.97
2022-10-18T14:51:49.991Z,101660.03
2022-10-18T14:54:30.658Z,101653.72
2022-10-18T14:57:02.895Z,101655.63
2022-10-18T14:59:32.551Z,101663.00
2022-10-18T15:02:06.869Z,101655.63
2022-10-18T15:04:34.205Z,101645.63
2022-10-18T15:07:03.214Z,101652.81
2022-10-18T15:09:30.791Z,101645.03
2022-10-18T15:11:58.283Z,101645.03
2022-10-18T15:14:27.512Z,101648.84
2022-10-18T15:17:01.549Z,101651.81
2022-10-18T15:19:35.868Z,101646.09
2022-10-18T15:22:30.346Z,101649.00
2022-10-18T15:25:16.664Z,101643.75
2022-10-18T15:27:51.117Z,101639.53
2022-10-18T15:30:42.778Z,101645.03
2022-10-18T15:33:20.218Z,101637.66
2022-10-18T15:35:47.634Z,101635.97
2022-10-18T15:38:16.741Z,101635.16
2022-10-18T15:40:44.204Z,101639.78
2022-10-18T15:43:23.827Z,101636.19
2022-10-18T15:46:05.124Z,101632.41
2022-10-18T15:48:38.077Z,101629.44
2022-10-18T15:51:12.622Z,101628.84
2022-10-18T15:53:49.214Z,101626.91
2022-10-18T15:56:46.135Z,101622.28
2022-10-18T15:59:28.510Z,101628.59
2022-10-18T16:01:56.010Z,101628.38
2022-10-18T16:04:27.309Z,101620.34
2022-10-18T16:06:55.690Z,101626.91
2022-10-18T16:09:24.756Z,101624.19
2022-10-18T16:11:56.600Z,101625.00
2022-10-18T16:14:25.342Z,101623.09
2022-10-18T16:17:02.382Z,101623.97
2022-10-18T16:19:30.347Z,101625.63
2022-10-18T16:22:01.105Z,101621.22
2022-10-18T16:24:31.343Z,101620.34
2022-10-18T16:26:58.827Z,101614.88
2022-10-18T16:29:31.897Z,101619.31
2022-10-18T16:32:00.105Z,101630.28
2022-10-18T16:34:27.636Z,101626.69
2022-10-18T16:36:55.400Z,101625.00
2022-10-18T16:39:22.956Z,101629.66
2022-10-18T16:41:51.326Z,101636.59
2022-10-18T16:44:19.244Z,101635.97
2022-10-18T16:46:47.638Z,101636.81
2022-10-18T16:49:24.585Z,101641.47
2022-10-18T16:51:55.551Z,101645.28
2022-10-18T16:54:23.555Z,101648.84
2022-10-18T16:56:51.204Z,101642.53
2022-10-18T16:59:23.431Z,101651.59
2022-10-18T17:01:51.024Z,101649.91
2022-10-18T17:04:18.571Z,101658.13
2022-10-18T17:06:46.107Z,101660.63
2022-10-18T17:09:16.309Z,101666.13
2022-10-18T17:11:43.732Z,101666.34
2022-10-18T17:14:11.187Z,101668.88
2022-10-18T17:16:39.359Z,101674.34
2022-10-18T17:19:07.767Z,101663.84
2022-10-18T17:21:35.380Z,101667.19
2022-10-18T17:24:04.373Z,101671.00
2022-10-18T17:26:31.881Z,101664.91
2022-10-18T17:29:04.674Z,101673.72
2022-10-18T17:31:32.411Z,101671.00
2022-10-18T17:34:01.946Z,101671.81
2022-10-18T17:36:30.799Z,101675.44
2022-10-18T17:38:58.417Z,101678.16
2022-10-18T17:41:26.229Z,101686.59
2022-10-18T17:43:54.004Z,101683.03
2022-10-18T17:46:21.474Z,101681.34
2022-10-18T17:48:49.047Z,101673.94
2022-10-18T17:51:17.437Z,101679.44
2022-10-18T17:53:45.128Z,101679.44
2022-10-18T17:56:12.942Z,101674.19
2022-10-18T17:58:43.210Z,101676.69
2022-10-18T18:01:18.102Z,101671.69
2022-10-18T18:03:45.516Z,101681.78
2022-10-18T18:06:30.704Z,101677.38
2022-10-18T18:08:58.644Z,101682.03
2022-10-18T18:11:26.189Z,101679.03
2022-10-18T18:13:55.453Z,101682.66
2022-10-18T18:16:24.542Z,101691.91
2022-10-18T18:18:56.410Z,101689.16
2022-10-18T18:21:24.380Z,101680.94
2022-10-18T18:23:51.812Z,101682.88
2022-10-18T18:26:19.493Z,101689.16
2022-10-18T18:28:47.164Z,101684.78
2022-10-18T18:31:25.238Z,101685.00
2022-10-18T18:33:56.483Z,101692.13
2022-10-18T18:36:25.161Z,101686.03
2022-10-18T18:38:56.859Z,101689.63
2022-10-18T18:41:25.603Z,101686.66
2022-10-18T18:44:00.820Z,101693.22
2022-10-18T18:46:29.559Z,101688.78
2022-10-18T18:48:57.247Z,101689.63
2022-10-18T18:51:24.991Z,101687.72
2022-10-18T18:53:52.530Z,101682.47
2022-10-18T18:56:24.427Z,101689.63
2022-10-18T18:58:52.390Z,101683.28
2022-10-18T19:01:20.637Z,101683.53
2022-10-18T19:03:52.301Z,101679.72
2022-10-18T19:06:27.772Z,101672.59
2022-10-18T19:09:03.095Z,101676.16
2022-10-18T19:11:32.944Z,101681.63
2022-10-18T19:14:00.718Z,101677.81
2022-10-18T19:16:35.645Z,101676.16
2022-10-18T19:19:06.225Z,101677.00
2022-10-18T19:21:38.600Z,101674.47
2022-10-18T19:24:06.649Z,101677.22
2022-10-18T19:27:12.457Z,101676.59
2022-10-18T19:29:40.404Z,101681.41
2022-10-18T19:32:11.949Z,101681.03
2022-10-18T19:34:39.602Z,101679.94
2022-10-18T19:37:09.879Z,101682.69
2022-10-18T19:39:37.610Z,101686.28
2022-10-18T19:42:07.803Z,101685.44
2022-10-18T19:44:37.653Z,101679.13
2022-10-18T19:47:06.454Z,101678.28
2022-10-18T19:49:34.009Z,101682.69
2022-10-18T19:52:01.527Z,101683.53
2022-10-18T19:54:29.021Z,101682.06
2022-10-18T19:56:56.906Z,101679.94
2022-10-18T19:59:24.734Z,101673.84
2022-10-18T20:01:52.254Z,101675.75
2022-10-18T20:04:20.189Z,101681.25
2022-10-18T20:06:48.484Z,101683.97
2022-10-18T20:09:19.661Z,101686.50
2022-10-18T20:11:48.369Z,101684.81
2022-10-18T20:14:15.958Z,101679.59
2022-10-18T20:16:43.480Z,101685.06
2022-10-18T20:19:11.742Z,101685.06
2022-10-18T20:21:40.466Z,101694.34
2022-10-18T20:24:09.761Z,101695.16
2022-10-18T20:26:39.794Z,101698.97
2022-10-18T20:29:08.106Z,101682.53
2022-10-18T20:31:38.313Z,101689.69
2022-10-18T20:34:08.252Z,101685.28
2022-10-18T20:36:36.066Z,101687.19
2022-10-18T20:39:03.810Z,101695.16
2022-10-18T20:41:38.299Z,101692.66
2022-10-18T20:44:07.202Z,101689.69
2022-10-18T20:46:35.719Z,101692.41
2022-10-18T20:49:03.822Z,101686.94
2022-10-18T20:51:33.724Z,101691.59
2022-10-18T20:56:37.167Z,101684.44
2022-10-18T20:59:06.287Z,101688.03
2022-10-18T21:01:34.331Z,101682.53
2022-10-18T21:04:04.337Z,101683.38
2022-10-18T21:06:53.194Z,101677.28
2022-10-18T21:09:20.751Z,101683.59
2022-10-18T21:11:49.887Z,101684.66
2022-10-18T21:14:18.926Z,101686.34
2022-10-18T21:16:46.473Z,101678.13
2022-10-18T21:19:20.767Z,101680.84
2022-10-18T21:21:50.379Z,101680.41
2022-10-18T21:24:18.518Z,101677.47
2022-10-18T21:26:46.211Z,101676.22
2022-10-18T21:29:18.149Z,101677.06
2022-10-18T21:31:48.378Z,101679.81
2022-10-18T21:34:17.324Z,101676.22
2022-10-18T21:36:47.203Z,101666.53
2022-10-18T21:39:18.196Z,101670.97
2022-10-18T21:41:45.770Z,101660.84
2022-10-18T21:44:13.496Z,101667.16
2022-10-18T21:46:42.993Z,101661.88
2022-10-18T21:49:10.633Z,101657.28
2022-10-18T21:51:38.167Z,101654.53
2022-10-18T21:54:13.010Z,101657.50
2022-10-18T21:56:40.526Z,101661.06
2022-10-18T21:59:08.088Z,101662.97
2022-10-18T22:01:36.763Z,101664.88
2022-10-18T22:04:06.302Z,101664.28
2022-10-18T22:09:08.362Z,101657.50
2022-10-18T22:11:41.342Z,101653.91
2022-10-18T22:14:08.876Z,101652.22
2022-10-18T22:16:36.335Z,101653.91
2022-10-18T22:19:04.391Z,101653.31
2022-10-18T22:21:31.950Z,101644.84
2022-10-18T22:23:59.447Z,101641.28
2022-10-18T22:26:32.371Z,101638.53
2022-10-18T22:29:11.222Z,101635.41
2022-10-18T22:31:39.706Z,101644.22
2022-10-18T22:34:12.030Z,101637.09
2022-10-18T22:36:39.528Z,101637.91
2022-10-18T22:39:07.099Z,101634.13
2022-10-18T22:41:34.803Z,101636.88
2022-10-18T22:44:03.663Z,101630.78
2022-10-18T22:46:32.620Z,101629.69
2022-10-18T22:49:00.150Z,101629.91
2022-10-18T22:51:27.708Z,101629.91
2022-10-18T22:53:55.215Z,101628.03
2022-10-18T22:56:22.935Z,101628.25
2022-10-18T22:58:50.509Z,101624.44
2022-10-18T23:01:19.795Z,101629.91
2022-10-18T23:03:47.272Z,101633.53
2022-10-18T23:06:22.119Z,101629.09
2022-10-18T23:08:49.977Z,101625.53
2022-10-18T23:11:18.412Z,101624.44
2022-10-18T23:13:46.085Z,101621.09
2022-10-18T23:16:14.044Z,101625.53
2022-10-18T23:18:42.009Z,101620.88
2022-10-18T23:21:11.222Z,101618.34
2022-10-18T23:23:40.864Z,101618.13
2022-10-18T23:26:16.647Z,101616.47
2022-10-18T23:28:45.602Z,101623.63
2022-10-18T23:31:35.481Z,101615.38
2022-10-18T23:34:04.004Z,101617.09
2022-10-18T23:36:31.819Z,101618.97
2022-10-18T23:38:59.303Z,101618.34
2022-10-18T23:41:26.876Z,101609.31
2022-10-18T23:43:54.436Z,101605.50
2022-10-18T23:46:21.928Z,101605.75
2022-10-18T23:48:49.427Z,101604.66
2022-10-18T23:51:17.021Z,101617.53
2022-10-18T23:53:47.104Z,101616.47
2022-10-18T23:56:15.692Z,101615.63
2022-10-18T23:58:43.586Z,101613.72
